createdAt,value
2023-01-08T00:00:05.278Z,9.12
2023-01-08T00:00:15.309Z,9.08
2023-01-08T00:00:25.421Z,9.10
2023-01-08T00:00:35.581Z,9.10
2023-01-08T00:00:45.630Z,9.12
2023-01-08T00:00:55.690Z,9.10
2023-01-08T00:01:05.768Z,9.08
2023-01-08T00:01:15.811Z,9.10
2023-01-08T00:01:25.840Z,9.10
2023-01-08T00:01:35.875Z,9.08
2023-01-08T00:01:45.913Z,9.10
2023-01-08T00:01:55.949Z,9.10
2023-01-08T00:02:05.973Z,9.10
2023-01-08T00:02:15.970Z,9.12
2023-01-08T00:02:25.971Z,9.10
2023-01-08T00:02:36.094Z,9.10
2023-01-08T00:02:46.012Z,9.12
2023-01-08T00:02:56.141Z,9.10
2023-01-08T00:03:06.317Z,9.12
2023-01-08T00:03:16.375Z,9.12
2023-01-08T00:03:26.348Z,9.12
2023-01-08T00:03:36.478Z,9.12
2023-01-08T00:03:46.454Z,9.10
2023-01-08T00:03:56.570Z,9.10
2023-01-08T00:04:06.631Z,9.10
2023-01-08T00:04:16.703Z,9.10
2023-01-08T00:04:26.738Z,9.08
2023-01-08T00:04:36.753Z,9.10
2023-01-08T00:04:46.769Z,9.10
2023-01-08T00:04:56.809Z,9.12
2023-01-08T00:05:06.820Z,9.10
2023-01-08T00:05:16.829Z,9.08
2023-01-08T00:05:26.839Z,9.10
2023-01-08T00:05:36.828Z,9.10
2023-01-08T00:05:46.828Z,9.10
2023-01-08T00:05:56.830Z,9.10
2023-01-08T00:06:06.842Z,9.12
2023-01-08T00:06:16.856Z,9.10
2023-01-08T00:06:26.843Z,9.08
2023-01-08T00:06:36.859Z,9.10
2023-01-08T00:06:46.858Z,9.10
2023-01-08T00:06:56.857Z,9.10
2023-01-08T00:07:06.887Z,9.10
2023-01-08T00:07:16.889Z,9.10
2023-01-08T00:07:26.894Z,9.10
2023-01-08T00:07:36.880Z,9.08
2023-01-08T00:07:46.879Z,9.08
2023-01-08T00:07:56.883Z,9.10
2023-01-08T00:08:06.898Z,9.10
2023-01-08T00:08:16.901Z,9.10
2023-01-08T00:08:26.899Z,9.10
2023-01-08T00:08:36.879Z,9.10
2023-01-08T00:08:46.904Z,9.10
2023-01-08T00:08:56.962Z,9.10
2023-01-08T00:09:06.952Z,9.12
2023-01-08T00:09:16.988Z,9.10
2023-01-08T00:09:27.031Z,9.08
2023-01-08T00:09:37.050Z,9.10
2023-01-08T00:09:47.169Z,9.10
2023-01-08T00:09:57.198Z,9.08
2023-01-08T00:10:07.251Z,9.10
2023-01-08T00:10:17.287Z,9.10
2023-01-08T00:10:27.416Z,9.08
2023-01-08T00:10:37.481Z,9.10
2023-01-08T00:10:47.531Z,9.08
2023-01-08T00:10:57.568Z,9.10
2023-01-08T00:11:07.620Z,9.08
2023-01-08T00:11:17.672Z,9.06
2023-01-08T00:11:27.709Z,9.08
2023-01-08T00:11:37.772Z,9.08
2023-01-08T00:11:47.801Z,9.04
2023-01-08T00:11:57.858Z,9.08
2023-01-08T00:12:07.880Z,9.06
2023-01-08T00:12:17.912Z,9.08
2023-01-08T00:12:27.947Z,9.06
2023-01-08T00:12:38.032Z,9.06
2023-01-08T00:12:48.109Z,9.08
2023-01-08T00:12:58.206Z,9.06
2023-01-08T00:13:08.248Z,9.06
2023-01-08T00:13:18.279Z,9.08
2023-01-08T00:13:28.390Z,9.06
2023-01-08T00:13:38.319Z,9.08
2023-01-08T00:13:48.353Z,9.06
2023-01-08T00:13:58.420Z,9.08
2023-01-08T00:14:08.458Z,9.06
2023-01-08T00:14:18.564Z,9.08
2023-01-08T00:14:28.604Z,9.08
2023-01-08T00:14:38.646Z,9.06
2023-01-08T00:14:48.693Z,9.06
2023-01-08T00:14:58.746Z,9.08
2023-01-08T00:15:08.778Z,9.08
2023-01-08T00:15:18.820Z,9.08
2023-01-08T00:15:28.851Z,9.04
2023-01-08T00:15:38.903Z,9.08
2023-01-08T00:15:48.963Z,9.08
2023-01-08T00:15:59.030Z,9.06
2023-01-08T00:16:09.168Z,9.08
2023-01-08T00:16:19.241Z,9.08
2023-01-08T00:16:29.385Z,9.06
2023-01-08T00:16:39.510Z,9.06
2023-01-08T00:16:49.476Z,9.08
2023-01-08T00:16:59.640Z,9.06
2023-01-08T00:17:09.575Z,9.04
2023-01-08T00:17:19.617Z,9.06
2023-01-08T00:17:29.700Z,9.06
2023-01-08T00:17:39.728Z,9.06
2023-01-08T00:17:49.768Z,9.06
2023-01-08T00:17:59.814Z,9.06
2023-01-08T00:18:09.852Z,9.06
2023-01-08T00:18:19.900Z,9.04
2023-01-08T00:18:29.948Z,9.04
2023-01-08T00:18:39.988Z,9.06
2023-01-08T00:18:50.027Z,9.04
2023-01-08T00:19:00.092Z,9.04
2023-01-08T00:19:10.137Z,9.06
2023-01-08T00:19:20.205Z,9.06
2023-01-08T00:19:30.217Z,9.04
2023-01-08T00:19:40.267Z,9.04
2023-01-08T00:19:50.305Z,9.03
2023-01-08T00:20:00.409Z,9.04
2023-01-08T00:20:10.452Z,9.04
2023-01-08T00:20:20.484Z,9.03
2023-01-08T00:20:30.551Z,9.04
2023-01-08T00:20:40.600Z,9.04
2023-01-08T00:20:50.623Z,9.03
2023-01-08T00:21:00.682Z,9.01
2023-01-08T00:21:10.713Z,9.03
2023-01-08T00:21:20.751Z,9.01
2023-01-08T00:21:30.788Z,9.03
2023-01-08T00:21:40.827Z,9.03
2023-01-08T00:21:50.853Z,9.03
2023-01-08T00:22:00.885Z,9.01
2023-01-08T00:22:10.967Z,9.03
2023-01-08T00:22:21.000Z,9.03
2023-01-08T00:22:31.047Z,9.01
2023-01-08T00:22:41.077Z,9.03
2023-01-08T00:22:51.226Z,9.03
2023-01-08T00:23:01.249Z,9.01
2023-01-08T00:23:11.328Z,9.01
2023-01-08T00:23:21.357Z,9.00
2023-01-08T00:23:31.453Z,9.01
2023-01-08T00:23:41.545Z,9.01
2023-01-08T00:23:51.589Z,9.00
2023-01-08T00:24:01.635Z,9.03
2023-01-08T00:24:11.669Z,9.01
2023-01-08T00:24:21.730Z,9.01
2023-01-08T00:24:31.768Z,9.00
2023-01-08T00:24:41.808Z,9.00
2023-01-08T00:24:51.847Z,9.00
2023-01-08T00:25:01.884Z,8.98
2023-01-08T00:25:11.928Z,8.98
2023-01-08T00:25:21.963Z,8.98
2023-01-08T00:25:32.016Z,8.98
2023-01-08T00:25:42.083Z,8.98
2023-01-08T00:25:52.139Z,8.98
2023-01-08T00:26:02.254Z,8.97
2023-01-08T00:26:12.265Z,8.98
2023-01-08T00:26:22.289Z,8.97
2023-01-08T00:26:32.357Z,8.98
2023-01-08T00:26:42.398Z,8.96
2023-01-08T00:26:52.476Z,8.97
2023-01-08T00:27:02.530Z,8.96
2023-01-08T00:27:12.576Z,8.97
2023-01-08T00:27:22.617Z,8.97
2023-01-08T00:27:32.660Z,8.97
2023-01-08T00:27:42.707Z,8.96
2023-01-08T00:27:52.747Z,8.97
2023-01-08T00:28:02.777Z,8.96
2023-01-08T00:28:12.809Z,8.97
2023-01-08T00:28:22.849Z,8.97
2023-01-08T00:28:32.881Z,8.96
2023-01-08T00:28:42.911Z,8.96
2023-01-08T00:28:52.960Z,8.97
2023-01-08T00:29:02.989Z,8.94
2023-01-08T00:29:13.037Z,8.94
2023-01-08T00:29:23.083Z,8.96
2023-01-08T00:29:33.147Z,8.94
2023-01-08T00:29:43.223Z,8.94
2023-01-08T00:29:53.265Z,8.94
2023-01-08T00:30:03.301Z,8.94
2023-01-08T00:30:13.336Z,8.94
2023-01-08T00:30:23.367Z,8.94
2023-01-08T00:30:33.461Z,8.94
2023-01-08T00:30:43.533Z,8.94
2023-01-08T00:30:53.600Z,8.94
2023-01-08T00:31:04.014Z,8.93
2023-01-08T00:31:13.691Z,8.94
2023-01-08T00:31:23.898Z,8.93
2023-01-08T00:31:33.785Z,8.94
2023-01-08T00:31:43.923Z,8.93
2023-01-08T00:31:53.896Z,8.93
2023-01-08T00:32:03.946Z,8.93
2023-01-08T00:32:13.991Z,8.93
2023-01-08T00:32:24.018Z,8.94
2023-01-08T00:32:34.092Z,8.91
2023-01-08T00:32:44.178Z,8.93
2023-01-08T00:32:54.217Z,8.93
2023-01-08T00:33:04.265Z,8.91
2023-01-08T00:33:14.288Z,8.93
2023-01-08T00:33:24.309Z,8.93
2023-01-08T00:33:34.355Z,8.91
2023-01-08T00:33:44.396Z,8.93
2023-01-08T00:33:54.424Z,8.91
2023-01-08T00:34:04.454Z,8.91
2023-01-08T00:34:14.494Z,8.93
2023-01-08T00:34:24.530Z,8.91
2023-01-08T00:34:34.558Z,8.89
2023-01-08T00:34:44.611Z,8.91
2023-01-08T00:34:54.648Z,8.91
2023-01-08T00:35:04.665Z,8.89
2023-01-08T00:35:14.685Z,8.94
2023-01-08T00:35:24.719Z,8.91
2023-01-08T00:35:34.776Z,8.91
2023-01-08T00:35:44.810Z,8.91
2023-01-08T00:35:54.836Z,8.91
2023-01-08T00:36:04.925Z,8.91
2023-01-08T00:36:14.974Z,8.91
2023-01-08T00:36:25.015Z,8.88
2023-01-08T00:36:35.038Z,8.91
2023-01-08T00:36:45.089Z,8.91
2023-01-08T00:36:55.107Z,8.89
2023-01-08T00:37:05.157Z,8.89
2023-01-08T00:37:15.186Z,8.89
2023-01-08T00:37:25.216Z,8.89
2023-01-08T00:37:35.267Z,8.89
2023-01-08T00:37:45.304Z,8.89
2023-01-08T00:37:55.336Z,8.89
2023-01-08T00:38:05.387Z,8.86
2023-01-08T00:38:15.407Z,8.89
2023-01-08T00:38:25.464Z,8.88
2023-01-08T00:38:35.524Z,8.89
2023-01-08T00:38:45.566Z,8.89
2023-01-08T00:38:55.589Z,8.89
2023-01-08T00:39:05.656Z,8.89
2023-01-08T00:39:15.690Z,8.88
2023-01-08T00:39:25.716Z,8.88
2023-01-08T00:39:35.798Z,8.88
2023-01-08T00:39:45.828Z,8.89
2023-01-08T00:39:55.867Z,8.89
2023-01-08T00:40:05.962Z,8.89
2023-01-08T00:40:16.003Z,8.88
2023-01-08T00:40:26.032Z,8.88
2023-01-08T00:40:36.147Z,8.88
2023-01-08T00:40:46.176Z,8.88
2023-01-08T00:40:56.215Z,8.88
2023-01-08T00:41:06.248Z,8.88
2023-01-08T00:41:16.290Z,8.89
2023-01-08T00:41:26.325Z,8.89
2023-01-08T00:41:36.393Z,8.89
2023-01-08T00:41:46.416Z,8.89
2023-01-08T00:41:56.471Z,8.88
2023-01-08T00:42:06.544Z,8.88
2023-01-08T00:42:16.586Z,8.88
2023-01-08T00:42:26.613Z,8.88
2023-01-08T00:42:36.656Z,8.88
2023-01-08T00:42:46.694Z,8.89
2023-01-08T00:42:56.726Z,8.89
2023-01-08T00:43:06.765Z,8.86
2023-01-08T00:43:16.810Z,8.86
2023-01-08T00:43:26.895Z,8.88
2023-01-08T00:43:36.915Z,8.86
2023-01-08T00:43:46.954Z,8.88
2023-01-08T00:43:56.975Z,8.88
2023-01-08T00:44:07.026Z,8.88
2023-01-08T00:44:17.047Z,8.86
2023-01-08T00:44:27.086Z,8.86
2023-01-08T00:44:37.114Z,8.85
2023-01-08T00:44:47.147Z,8.85
2023-01-08T00:44:57.186Z,8.85
2023-01-08T00:45:07.205Z,8.85
2023-01-08T00:45:17.236Z,8.85
2023-01-08T00:45:27.268Z,8.88
2023-01-08T00:45:37.360Z,8.86
2023-01-08T00:45:47.418Z,8.86
2023-01-08T00:45:57.492Z,8.85
2023-01-08T00:46:07.577Z,8.85
2023-01-08T00:46:17.699Z,8.85
2023-01-08T00:46:27.758Z,8.85
2023-01-08T00:46:37.787Z,8.85
2023-01-08T00:46:47.826Z,8.85
2023-01-08T00:46:57.915Z,8.85
2023-01-08T00:47:07.953Z,8.85
2023-01-08T00:47:18.013Z,8.86
2023-01-08T00:47:28.062Z,8.83
2023-01-08T00:47:38.089Z,8.83
2023-01-08T00:47:48.117Z,8.83
2023-01-08T00:47:58.184Z,8.83
2023-01-08T00:48:08.218Z,8.83
2023-01-08T00:48:18.245Z,8.82
2023-01-08T00:48:28.319Z,8.83
2023-01-08T00:48:38.334Z,8.83
2023-01-08T00:48:48.354Z,8.82
2023-01-08T00:48:58.385Z,8.82
2023-01-08T00:49:08.423Z,8.80
2023-01-08T00:49:18.465Z,8.82
2023-01-08T00:49:28.497Z,8.80
2023-01-08T00:49:38.606Z,8.82
2023-01-08T00:49:48.633Z,8.82
2023-01-08T00:49:58.675Z,8.82
2023-01-08T00:50:08.719Z,8.82
2023-01-08T00:50:18.754Z,8.82
2023-01-08T00:50:28.807Z,8.83
2023-01-08T00:50:38.853Z,8.82
2023-01-08T00:50:48.887Z,8.82
2023-01-08T00:50:58.930Z,8.82
2023-01-08T00:51:08.953Z,8.80
2023-01-08T00:51:19.023Z,8.80
2023-01-08T00:51:29.106Z,8.82
2023-01-08T00:51:39.143Z,8.82
2023-01-08T00:51:49.186Z,8.80
2023-01-08T00:51:59.267Z,8.82
2023-01-08T00:52:09.337Z,8.80
2023-01-08T00:52:19.374Z,8.82
2023-01-08T00:52:29.418Z,8.80
2023-01-08T00:52:39.462Z,8.82
2023-01-08T00:52:49.530Z,8.79
2023-01-08T00:52:59.567Z,8.80
2023-01-08T00:53:09.605Z,8.79
2023-01-08T00:53:19.644Z,8.80
2023-01-08T00:53:29.682Z,8.79
2023-01-08T00:53:39.744Z,8.79
2023-01-08T00:53:49.781Z,8.79
2023-01-08T00:53:59.825Z,8.79
2023-01-08T00:54:09.872Z,8.79
2023-01-08T00:54:19.904Z,8.79
2023-01-08T00:54:29.934Z,8.79
2023-01-08T00:54:39.989Z,8.79
2023-01-08T00:54:50.017Z,8.78
2023-01-08T00:55:00.076Z,8.79
2023-01-08T00:55:10.120Z,8.78
2023-01-08T00:55:20.178Z,8.79
2023-01-08T00:55:30.224Z,8.78
2023-01-08T00:55:40.264Z,8.78
2023-01-08T00:55:50.357Z,8.78
2023-01-08T00:56:00.424Z,8.78
2023-01-08T00:56:10.454Z,8.78
2023-01-08T00:56:20.491Z,8.78
2023-01-08T00:56:30.564Z,8.78
2023-01-08T00:56:40.601Z,8.78
2023-01-08T00:56:50.701Z,8.76
2023-01-08T00:57:00.748Z,8.78
2023-01-08T00:57:10.766Z,8.76
2023-01-08T00:57:20.826Z,8.76
2023-01-08T00:57:30.852Z,8.75
2023-01-08T00:57:40.876Z,8.78
2023-01-08T00:57:50.902Z,8.76
2023-01-08T00:58:00.934Z,8.76
2023-01-08T00:58:10.982Z,8.76
2023-01-08T00:58:21.015Z,8.76
2023-01-08T00:58:31.072Z,8.76
2023-01-08T00:58:41.118Z,8.76
2023-01-08T00:58:51.197Z,8.76
2023-01-08T00:59:01.263Z,8.75
2023-01-08T00:59:11.312Z,8.75
2023-01-08T00:59:21.343Z,8.73
2023-01-08T00:59:31.388Z,8.76
2023-01-08T00:59:41.413Z,8.73
2023-01-08T00:59:51.441Z,8.71
2023-01-08T01:00:01.482Z,8.75
2023-01-08T01:00:11.520Z,8.75
2023-01-08T01:00:21.553Z,8.75
2023-01-08T01:00:31.582Z,8.71
2023-01-08T01:00:41.656Z,8.71
2023-01-08T01:00:51.712Z,8.73
2023-01-08T01:01:01.785Z,8.73
2023-01-08T01:01:12.079Z,8.73
2023-01-08T01:01:22.181Z,8.73
2023-01-08T01:01:32.257Z,8.73
2023-01-08T01:01:42.357Z,8.71
2023-01-08T01:01:52.422Z,8.73
2023-01-08T01:02:02.466Z,8.73
2023-01-08T01:02:12.468Z,8.73
2023-01-08T01:02:22.621Z,8.71
2023-01-08T01:02:32.703Z,8.71
2023-01-08T01:02:42.732Z,8.71
2023-01-08T01:02:52.797Z,8.73
2023-01-08T01:03:02.807Z,8.71
2023-01-08T01:03:12.845Z,8.71
2023-01-08T01:03:22.883Z,8.70
2023-01-08T01:03:32.936Z,8.71
2023-01-08T01:03:42.960Z,8.70
2023-01-08T01:03:53.042Z,8.68
2023-01-08T01:04:03.193Z,8.68
2023-01-08T01:04:13.298Z,8.71
2023-01-08T01:04:23.411Z,8.67
2023-01-08T01:04:33.539Z,8.68
2023-01-08T01:04:43.596Z,8.68
2023-01-08T01:04:53.625Z,8.68
2023-01-08T01:05:03.653Z,8.68
2023-01-08T01:05:13.736Z,8.68
2023-01-08T01:05:24.010Z,8.68
2023-01-08T01:05:33.819Z,8.70
2023-01-08T01:05:43.834Z,8.67
2023-01-08T01:05:53.885Z,8.68
2023-01-08T01:06:03.922Z,8.68
2023-01-08T01:06:14.013Z,8.68
2023-01-08T01:06:24.090Z,8.68
2023-01-08T01:06:34.157Z,8.67
2023-01-08T01:06:44.212Z,8.68
2023-01-08T01:06:54.240Z,8.67
2023-01-08T01:07:04.296Z,8.65
2023-01-08T01:07:14.333Z,8.67
2023-01-08T01:07:24.372Z,8.65
2023-01-08T01:07:34.515Z,8.67
2023-01-08T01:07:44.564Z,8.65
2023-01-08T01:07:54.604Z,8.65
2023-01-08T01:08:04.628Z,8.65
2023-01-08T01:08:14.722Z,8.64
2023-01-08T01:08:24.815Z,8.65
2023-01-08T01:08:34.938Z,8.65
2023-01-08T01:08:44.983Z,8.65
2023-01-08T01:08:55.033Z,8.65
2023-01-08T01:09:05.081Z,8.64
2023-01-08T01:09:15.143Z,8.63
2023-01-08T01:09:25.183Z,8.65
2023-01-08T01:09:35.216Z,8.64
2023-01-08T01:09:45.248Z,8.64
2023-01-08T01:09:55.378Z,8.65
2023-01-08T01:10:05.423Z,8.64
2023-01-08T01:10:15.444Z,8.63
2023-01-08T01:10:25.478Z,8.64
2023-01-08T01:10:35.520Z,8.64
2023-01-08T01:10:45.534Z,8.64
2023-01-08T01:10:55.571Z,8.65
2023-01-08T01:11:05.609Z,8.65
2023-01-08T01:11:15.642Z,8.64
2023-01-08T01:11:25.708Z,8.64
2023-01-08T01:11:35.724Z,8.65
2023-01-08T01:11:45.754Z,8.65
2023-01-08T01:11:55.895Z,8.64
2023-01-08T01:12:05.906Z,8.64
2023-01-08T01:12:15.950Z,8.64
2023-01-08T01:12:25.961Z,8.64
2023-01-08T01:12:35.992Z,8.64
2023-01-08T01:12:46.078Z,8.64
2023-01-08T01:12:56.111Z,8.64
2023-01-08T01:13:06.145Z,8.64
2023-01-08T01:13:16.191Z,8.63
2023-01-08T01:13:26.246Z,8.63
2023-01-08T01:13:36.283Z,8.63
2023-01-08T01:13:46.312Z,8.63
2023-01-08T01:13:56.371Z,8.63
2023-01-08T01:14:06.402Z,8.63
2023-01-08T01:14:16.450Z,8.63
2023-01-08T01:14:26.462Z,8.61
2023-01-08T01:14:36.501Z,8.63
2023-01-08T01:14:46.543Z,8.63
2023-01-08T01:14:56.590Z,8.61
2023-01-08T01:15:06.595Z,8.61
2023-01-08T01:15:16.621Z,8.61
2023-01-08T01:15:26.629Z,8.61
2023-01-08T01:15:36.680Z,8.61
2023-01-08T01:15:46.692Z,8.60
2023-01-08T01:15:56.702Z,8.60
2023-01-08T01:16:06.718Z,8.60
2023-01-08T01:16:16.792Z,8.60
2023-01-08T01:16:26.921Z,8.58
2023-01-08T01:16:36.987Z,8.61
2023-01-08T01:16:47.066Z,8.58
2023-01-08T01:16:57.127Z,8.60
2023-01-08T01:17:07.155Z,8.61
2023-01-08T01:17:17.161Z,8.60
2023-01-08T01:17:27.151Z,8.60
2023-01-08T01:17:37.241Z,8.60
2023-01-08T01:17:47.256Z,8.60
2023-01-08T01:17:57.261Z,8.60
2023-01-08T01:18:07.274Z,8.60
2023-01-08T01:18:17.309Z,8.60
2023-01-08T01:18:27.291Z,8.60
2023-01-08T01:18:37.320Z,8.60
2023-01-08T01:18:47.312Z,8.60
2023-01-08T01:18:57.312Z,8.60
2023-01-08T01:19:07.322Z,8.60
2023-01-08T01:19:17.360Z,8.61
2023-01-08T01:19:27.352Z,8.58
2023-01-08T01:19:37.377Z,8.57
2023-01-08T01:19:47.410Z,8.60
2023-01-08T01:19:57.430Z,8.58
2023-01-08T01:20:07.463Z,8.58
2023-01-08T01:20:17.494Z,8.58
2023-01-08T01:20:27.493Z,8.60
2023-01-08T01:20:37.489Z,8.60
2023-01-08T01:20:47.503Z,8.58
2023-01-08T01:20:57.502Z,8.60
2023-01-08T01:21:07.510Z,8.60
2023-01-08T01:21:17.503Z,8.58
2023-01-08T01:21:27.524Z,8.60
2023-01-08T01:21:37.522Z,8.58
2023-01-08T01:21:47.593Z,8.57
2023-01-08T01:21:57.600Z,8.58
2023-01-08T01:22:07.601Z,8.57
2023-01-08T01:22:17.591Z,8.58
2023-01-08T01:22:27.601Z,8.58
2023-01-08T01:22:37.627Z,8.57
2023-01-08T01:22:47.628Z,8.57
2023-01-08T01:22:57.639Z,8.58
2023-01-08T01:23:07.811Z,8.57
2023-01-08T01:23:17.865Z,8.55
2023-01-08T01:23:27.892Z,8.57
2023-01-08T01:23:37.887Z,8.55
2023-01-08T01:23:47.887Z,8.57
2023-01-08T01:23:57.943Z,8.55
2023-01-08T01:24:07.967Z,8.55
2023-01-08T01:24:18.055Z,8.55
2023-01-08T01:24:28.098Z,8.55
2023-01-08T01:24:38.185Z,8.57
2023-01-08T01:24:48.171Z,8.55
2023-01-08T01:24:58.331Z,8.54
2023-01-08T01:25:08.368Z,8.55
2023-01-08T01:25:18.406Z,8.55
2023-01-08T01:25:28.423Z,8.55
2023-01-08T01:25:38.422Z,8.54
2023-01-08T01:25:48.438Z,8.54
2023-01-08T01:25:58.430Z,8.54
2023-01-08T01:26:08.440Z,8.55
2023-01-08T01:26:18.469Z,8.54
2023-01-08T01:26:28.480Z,8.54
2023-01-08T01:26:38.539Z,8.54
2023-01-08T01:26:48.552Z,8.54
2023-01-08T01:26:58.565Z,8.52
2023-01-08T01:27:08.609Z,8.52
2023-01-08T01:27:18.620Z,8.54
2023-01-08T01:27:28.610Z,8.54
2023-01-08T01:27:38.619Z,8.54
2023-01-08T01:27:48.649Z,8.55
2023-01-08T01:27:58.640Z,8.52
2023-01-08T01:28:08.643Z,8.50
2023-01-08T01:28:18.662Z,8.52
2023-01-08T01:28:28.650Z,8.52
2023-01-08T01:28:38.660Z,8.52
2023-01-08T01:28:48.671Z,8.52
2023-01-08T01:28:58.709Z,8.52
2023-01-08T01:29:08.760Z,8.49
2023-01-08T01:29:18.766Z,8.52
2023-01-08T01:29:28.786Z,8.50
2023-01-08T01:29:38.820Z,8.50
2023-01-08T01:29:48.832Z,8.52
2023-01-08T01:29:58.848Z,8.50
2023-01-08T01:30:08.858Z,8.49
2023-01-08T01:30:18.900Z,8.49
2023-01-08T01:30:28.906Z,8.50
2023-01-08T01:30:38.957Z,8.50
2023-01-08T01:30:48.960Z,8.49
2023-01-08T01:30:59.037Z,8.49
2023-01-08T01:31:09.120Z,8.49
2023-01-08T01:31:19.207Z,8.49
2023-01-08T01:31:29.208Z,8.50
2023-01-08T01:31:39.380Z,8.50
2023-01-08T01:31:49.372Z,8.50
2023-01-08T01:31:59.391Z,8.47
2023-01-08T01:32:09.379Z,8.50
2023-01-08T01:32:19.388Z,8.50
2023-01-08T01:32:29.429Z,8.49
2023-01-08T01:32:39.434Z,8.47
2023-01-08T01:32:49.460Z,8.47
2023-01-08T01:32:59.471Z,8.49
2023-01-08T01:33:09.492Z,8.49
2023-01-08T01:33:19.481Z,8.47
2023-01-08T01:33:29.549Z,8.47
2023-01-08T01:33:39.540Z,8.46
2023-01-08T01:33:49.547Z,8.47
2023-01-08T01:33:59.571Z,8.47
2023-01-08T01:34:09.604Z,8.47
2023-01-08T01:34:19.620Z,8.46
2023-01-08T01:34:29.627Z,8.46
2023-01-08T01:34:39.639Z,8.46
2023-01-08T01:34:49.636Z,8.47
2023-01-08T01:34:59.668Z,8.45
2023-01-08T01:35:09.659Z,8.47
2023-01-08T01:35:19.759Z,8.45
2023-01-08T01:35:29.761Z,8.46
2023-01-08T01:35:39.810Z,8.45
2023-01-08T01:35:49.829Z,8.46
2023-01-08T01:35:59.868Z,8.45
2023-01-08T01:36:09.882Z,8.46
2023-01-08T01:36:19.920Z,8.43
2023-01-08T01:36:29.923Z,8.45
2023-01-08T01:36:39.927Z,8.43
2023-01-08T01:36:49.935Z,8.45
2023-01-08T01:36:59.977Z,8.43
2023-01-08T01:37:10.009Z,8.45
2023-01-08T01:37:20.066Z,8.45
2023-01-08T01:37:30.089Z,8.43
2023-01-08T01:37:40.129Z,8.40
2023-01-08T01:37:50.177Z,8.45
2023-01-08T01:38:00.197Z,8.43
2023-01-08T01:38:10.249Z,8.43
2023-01-08T01:38:20.279Z,8.43
2023-01-08T01:38:30.328Z,8.42
2023-01-08T01:38:40.368Z,8.45
2023-01-08T01:38:50.466Z,8.43
2023-01-08T01:39:00.519Z,8.42
2023-01-08T01:39:10.583Z,8.43
2023-01-08T01:39:20.612Z,8.43
2023-01-08T01:39:30.650Z,8.43
2023-01-08T01:39:40.688Z,8.42
2023-01-08T01:39:50.771Z,8.43
2023-01-08T01:40:00.860Z,8.42
2023-01-08T01:40:10.968Z,8.42
2023-01-08T01:40:21.036Z,8.42
2023-01-08T01:40:31.086Z,8.40
2023-01-08T01:40:41.110Z,8.40
2023-01-08T01:40:51.207Z,8.40
2023-01-08T01:41:01.247Z,8.40
2023-01-08T01:41:11.348Z,8.39
2023-01-08T01:41:21.379Z,8.40
2023-01-08T01:41:31.450Z,8.40
2023-01-08T01:41:41.508Z,8.40
2023-01-08T01:41:51.548Z,8.40
2023-01-08T01:42:01.591Z,8.39
2023-01-08T01:42:11.627Z,8.40
2023-01-08T01:42:21.678Z,8.39
2023-01-08T01:42:31.759Z,8.39
2023-01-08T01:42:41.820Z,8.39
2023-01-08T01:42:51.846Z,8.37
2023-01-08T01:43:01.876Z,8.37
2023-01-08T01:43:11.909Z,8.37
2023-01-08T01:43:21.959Z,8.37
2023-01-08T01:43:32.012Z,8.37
2023-01-08T01:43:42.065Z,8.36
2023-01-08T01:43:52.165Z,8.36
2023-01-08T01:44:02.229Z,8.36
2023-01-08T01:44:12.267Z,8.36
2023-01-08T01:44:22.345Z,8.36
2023-01-08T01:44:32.398Z,8.37
2023-01-08T01:44:42.450Z,8.36
2023-01-08T01:44:52.527Z,8.37
2023-01-08T01:45:02.545Z,8.36
2023-01-08T01:45:12.569Z,8.36
2023-01-08T01:45:22.619Z,8.34
2023-01-08T01:45:32.708Z,8.34
2023-01-08T01:45:42.796Z,8.34
2023-01-08T01:45:52.821Z,8.32
2023-01-08T01:46:03.006Z,8.34
2023-01-08T01:46:12.946Z,8.34
2023-01-08T01:46:22.987Z,8.32
2023-01-08T01:46:33.039Z,8.32
2023-01-08T01:46:43.087Z,8.32
2023-01-08T01:46:53.136Z,8.34
2023-01-08T01:47:03.194Z,8.32
2023-01-08T01:47:13.206Z,8.31
2023-01-08T01:47:23.368Z,8.31
2023-01-08T01:47:33.397Z,8.32
2023-01-08T01:47:43.438Z,8.31
2023-01-08T01:47:53.468Z,8.32
2023-01-08T01:48:03.518Z,8.31
2023-01-08T01:48:13.538Z,8.34
2023-01-08T01:48:23.599Z,8.31
2023-01-08T01:48:33.757Z,8.32
2023-01-08T01:48:43.787Z,8.31
2023-01-08T01:48:53.819Z,8.32
2023-01-08T01:49:03.882Z,8.32
2023-01-08T01:49:13.907Z,8.31
2023-01-08T01:49:23.937Z,8.31
2023-01-08T01:49:33.976Z,8.29
2023-01-08T01:49:44.047Z,8.29
2023-01-08T01:49:54.094Z,8.29
2023-01-08T01:50:04.124Z,8.31
2023-01-08T01:50:14.166Z,8.29
2023-01-08T01:50:24.215Z,8.29
2023-01-08T01:50:34.281Z,8.28
2023-01-08T01:50:44.314Z,8.31
2023-01-08T01:50:54.350Z,8.31
2023-01-08T01:51:04.387Z,8.31
2023-01-08T01:51:14.425Z,8.29
2023-01-08T01:51:24.495Z,8.29
2023-01-08T01:51:34.529Z,8.29
2023-01-08T01:51:44.565Z,8.28
2023-01-08T01:51:54.588Z,8.28
2023-01-08T01:52:04.660Z,8.29
2023-01-08T01:52:14.673Z,8.28
2023-01-08T01:52:24.716Z,8.28
2023-01-08T01:52:34.746Z,8.28
2023-01-08T01:52:44.847Z,8.27
2023-01-08T01:52:54.875Z,8.27
2023-01-08T01:53:04.911Z,8.28
2023-01-08T01:53:14.991Z,8.27
2023-01-08T01:53:25.029Z,8.27
2023-01-08T01:53:35.179Z,8.27
2023-01-08T01:53:45.227Z,8.27
2023-01-08T01:53:55.278Z,8.27
2023-01-08T01:54:05.324Z,8.25
2023-01-08T01:54:15.411Z,8.25
2023-01-08T01:54:25.444Z,8.27
2023-01-08T01:54:35.502Z,8.27
2023-01-08T01:54:45.573Z,8.25
2023-01-08T01:54:55.601Z,8.25
2023-01-08T01:55:05.634Z,8.27
2023-01-08T01:55:15.666Z,8.27
2023-01-08T01:55:25.709Z,8.27
2023-01-08T01:55:35.727Z,8.27
2023-01-08T01:55:45.766Z,8.25
2023-01-08T01:55:55.806Z,8.25
2023-01-08T01:56:05.826Z,8.25
2023-01-08T01:56:15.865Z,8.27
2023-01-08T01:56:25.992Z,8.27
2023-01-08T01:56:36.014Z,8.27
2023-01-08T01:56:46.052Z,8.25
2023-01-08T01:56:56.079Z,8.27
2023-01-08T01:57:06.106Z,8.25
2023-01-08T01:57:16.137Z,8.24
2023-01-08T01:57:26.196Z,8.25
2023-01-08T01:57:36.272Z,8.25
2023-01-08T01:57:46.325Z,8.24
2023-01-08T01:57:56.385Z,8.25
2023-01-08T01:58:06.434Z,8.24
2023-01-08T01:58:16.466Z,8.22
2023-01-08T01:58:26.500Z,8.24
2023-01-08T01:58:36.527Z,8.21
2023-01-08T01:58:46.557Z,8.22
2023-01-08T01:58:56.597Z,8.22
2023-01-08T01:59:06.626Z,8.22
2023-01-08T01:59:16.703Z,8.22
2023-01-08T01:59:26.735Z,8.22
2023-01-08T01:59:36.819Z,8.21
2023-01-08T01:59:46.855Z,8.21
2023-01-08T01:59:56.896Z,8.20
2023-01-08T02:00:06.949Z,8.20
2023-01-08T02:00:16.984Z,8.18
2023-01-08T02:00:27.015Z,8.21
2023-01-08T02:00:37.066Z,8.20
2023-01-08T02:00:47.094Z,8.20
2023-01-08T02:00:57.205Z,8.20
2023-01-08T02:01:07.321Z,8.20
2023-01-08T02:01:17.373Z,8.18
2023-01-08T02:01:27.429Z,8.17
2023-01-08T02:01:37.433Z,8.18
2023-01-08T02:01:47.487Z,8.17
2023-01-08T02:01:57.512Z,8.18
2023-01-08T02:02:07.559Z,8.18
2023-01-08T02:02:17.628Z,8.17
2023-01-08T02:02:27.590Z,8.17
2023-01-08T02:02:37.670Z,8.17
2023-01-08T02:02:47.720Z,8.17
2023-01-08T02:02:57.774Z,8.17
2023-01-08T02:03:07.897Z,8.17
2023-01-08T02:03:17.998Z,8.17
2023-01-08T02:03:28.075Z,8.17
2023-01-08T02:03:38.208Z,8.17
2023-01-08T02:03:48.296Z,8.17
2023-01-08T02:03:58.361Z,8.14
2023-01-08T02:04:08.456Z,8.17
2023-01-08T02:04:18.561Z,8.17
2023-01-08T02:04:28.699Z,8.17
2023-01-08T02:04:38.746Z,8.13
2023-01-08T02:04:48.795Z,8.17
2023-01-08T02:04:58.825Z,8.13
2023-01-08T02:05:08.891Z,8.14
2023-01-08T02:05:18.905Z,8.13
2023-01-08T02:05:28.935Z,8.13
2023-01-08T02:05:38.975Z,8.14
2023-01-08T02:05:48.995Z,8.13
2023-01-08T02:05:59.035Z,8.12
2023-01-08T02:06:09.075Z,8.13
2023-01-08T02:06:19.137Z,8.13
2023-01-08T02:06:29.187Z,8.14
2023-01-08T02:06:39.224Z,8.14
2023-01-08T02:06:49.307Z,8.13
2023-01-08T02:06:59.334Z,8.14
2023-01-08T02:07:09.376Z,8.13
2023-01-08T02:07:19.419Z,8.14
2023-01-08T02:07:29.485Z,8.13
2023-01-08T02:07:39.515Z,8.14
2023-01-08T02:07:49.547Z,8.14
2023-01-08T02:07:59.564Z,8.13
2023-01-08T02:08:09.595Z,8.13
2023-01-08T02:08:19.623Z,8.13
2023-01-08T02:08:29.663Z,8.12
2023-01-08T02:08:39.680Z,8.12
2023-01-08T02:08:49.799Z,8.12
2023-01-08T02:08:59.834Z,8.12
2023-01-08T02:09:09.866Z,8.12
2023-01-08T02:09:19.952Z,8.12
2023-01-08T02:09:29.983Z,8.12
2023-01-08T02:09:40.025Z,8.12
2023-01-08T02:09:50.064Z,8.12
2023-01-08T02:10:00.166Z,8.12
2023-01-08T02:10:10.209Z,8.12
2023-01-08T02:10:20.244Z,8.12
2023-01-08T02:10:30.283Z,8.10
2023-01-08T02:10:40.327Z,8.10
2023-01-08T02:10:50.374Z,8.10
2023-01-08T02:11:00.412Z,8.10
2023-01-08T02:11:10.509Z,8.09
2023-01-08T02:11:20.605Z,8.09
2023-01-08T02:11:30.647Z,8.09
2023-01-08T02:11:40.683Z,8.10
2023-01-08T02:11:50.832Z,8.09
2023-01-08T02:12:00.879Z,8.10
2023-01-08T02:12:10.922Z,8.10
2023-01-08T02:12:20.974Z,8.09
2023-01-08T02:12:31.051Z,8.10
2023-01-08T02:12:41.084Z,8.10
2023-01-08T02:12:51.105Z,8.10
2023-01-08T02:13:01.136Z,8.09
2023-01-08T02:13:11.184Z,8.09
2023-01-08T02:13:21.225Z,8.09
2023-01-08T02:13:31.305Z,8.09
2023-01-08T02:13:41.340Z,8.09